createdAt,value
2022-08-19T00:01:29.197Z,17.80
2022-08-19T00:03:57.166Z,17.80
2022-08-19T00:06:23.873Z,17.80
2022-08-19T00:08:52.225Z,17.80
2022-08-19T00:11:25.638Z,17.80
2022-08-19T00:13:52.708Z,17.70
2022-08-19T00:16:20.514Z,17.70
2022-08-19T00:18:52.933Z,17.70
2022-08-19T00:21:19.493Z,17.70
2022-08-19T00:23:46.076Z,17.70
2022-08-19T00:26:12.603Z,17.60
2022-08-19T00:28:39.181Z,17.60
2022-08-19T00:31:05.742Z,17.60
2022-08-19T00:33:35.372Z,17.60
2022-08-19T00:36:01.909Z,17.60
2022-08-19T00:38:37.352Z,17.60
2022-08-19T00:41:04.435Z,17.60
2022-08-19T00:43:31.004Z,17.60
2022-08-19T00:45:57.639Z,17.60
2022-08-19T00:48:24.392Z,17.60
2022-08-19T00:50:51.575Z,17.60
2022-08-19T00:53:19.864Z,17.60
2022-08-19T00:55:46.382Z,17.60
2022-08-19T00:58:13.473Z,17.60
2022-08-19T01:00:40.053Z,17.60
2022-08-19T01:03:06.646Z,17.60
2022-08-19T01:05:33.169Z,17.70
2022-08-19T01:07:59.727Z,17.60
2022-08-19T01:10:26.417Z,17.60
2022-08-19T01:12:53.090Z,17.60
2022-08-19T01:15:19.889Z,17.50
2022-08-19T01:17:46.458Z,17.50
2022-08-19T01:20:13.053Z,17.50
2022-08-19T01:22:42.872Z,17.50
2022-08-19T01:25:14.951Z,17.50
2022-08-19T01:27:43.684Z,17.60
2022-08-19T01:44:30.557Z,17.60
2022-08-19T01:46:57.224Z,17.50
2022-08-19T01:49:23.931Z,17.50
2022-08-19T01:51:50.551Z,17.50
2022-08-19T01:54:27.012Z,17.50
2022-08-19T01:56:54.535Z,17.40
2022-08-19T01:59:21.456Z,17.40
2022-08-19T02:01:48.043Z,17.40
2022-08-19T02:04:15.441Z,17.30
2022-08-19T02:06:42.111Z,17.30
2022-08-19T02:09:09.153Z,17.30
2022-08-19T02:11:36.259Z,17.30
2022-08-19T02:14:03.054Z,17.30
2022-08-19T02:16:29.577Z,17.20
2022-08-19T02:18:56.145Z,17.20
2022-08-19T02:21:22.755Z,17.20
2022-08-19T02:23:49.323Z,17.20
2022-08-19T02:26:15.885Z,17.20
2022-08-19T02:28:42.451Z,17.20
2022-08-19T02:31:09.382Z,17.20
2022-08-19T02:33:36.009Z,17.20
2022-08-19T02:36:02.603Z,17.20
2022-08-19T02:38:29.411Z,17.10
2022-08-19T02:40:59.118Z,17.00
2022-08-19T02:43:26.624Z,17.00
2022-08-19T02:45:53.160Z,16.90
2022-08-19T02:48:21.899Z,16.90
2022-08-19T02:50:51.959Z,16.90
2022-08-19T02:53:20.464Z,16.90
2022-08-19T02:55:47.095Z,16.80
2022-08-19T02:58:13.723Z,16.80
2022-08-19T03:00:42.239Z,16.80
2022-08-19T03:03:08.888Z,16.70
2022-08-19T03:05:46.987Z,16.70
2022-08-19T03:08:21.980Z,16.70
2022-08-19T03:10:49.405Z,16.70
2022-08-19T03:13:16.349Z,16.70
2022-08-19T03:15:42.914Z,16.70
2022-08-19T03:18:09.579Z,16.70
2022-08-19T03:20:36.429Z,16.70
2022-08-19T03:23:03.006Z,16.70
2022-08-19T03:25:29.556Z,16.70
2022-08-19T03:27:56.129Z,16.70
2022-08-19T03:30:23.307Z,16.60
2022-08-19T03:32:51.438Z,16.60
2022-08-19T03:35:23.629Z,16.60
2022-08-19T03:37:50.165Z,16.60
2022-08-19T03:40:16.785Z,16.60
2022-08-19T03:42:49.257Z,16.60
2022-08-19T03:45:16.040Z,16.70
2022-08-19T03:47:42.656Z,16.60
2022-08-19T03:50:09.981Z,16.60
2022-08-19T03:52:36.861Z,16.60
2022-08-19T03:55:03.432Z,16.60
2022-08-19T03:57:32.016Z,16.50
2022-08-19T04:00:04.139Z,16.50
2022-08-19T04:02:40.386Z,16.50
2022-08-19T04:05:09.059Z,16.40
2022-08-19T04:07:35.672Z,16.40
2022-08-19T04:10:02.246Z,16.50
2022-08-19T04:12:28.792Z,16.40
2022-08-19T04:14:55.342Z,16.40
2022-08-19T04:17:23.321Z,16.40
2022-08-19T04:19:49.918Z,16.40
2022-08-19T04:22:16.488Z,16.40
2022-08-19T04:24:43.042Z,16.30
2022-08-19T04:27:09.646Z,16.30
2022-08-19T04:29:36.234Z,16.30
2022-08-19T04:32:09.050Z,16.40
2022-08-19T04:34:36.313Z,16.40
2022-08-19T04:37:22.858Z,16.40
2022-08-19T04:40:08.117Z,16.40
2022-08-19T04:42:40.663Z,16.30
2022-08-19T04:45:09.424Z,16.40
2022-08-19T04:47:47.470Z,16.30
2022-08-19T04:50:23.496Z,16.30
2022-08-19T04:52:50.034Z,16.30
2022-08-19T04:55:16.587Z,16.30
2022-08-19T04:57:43.130Z,16.30
2022-08-19T05:00:09.699Z,16.30
2022-08-19T05:02:36.385Z,16.30
2022-08-19T05:05:03.605Z,16.30
2022-08-19T05:07:30.399Z,16.30
2022-08-19T05:09:58.819Z,16.40
2022-08-19T05:12:28.927Z,16.40
2022-08-19T05:14:57.585Z,16.40
2022-08-19T05:17:27.522Z,16.50
2022-08-19T05:20:14.329Z,16.50
2022-08-19T05:22:40.877Z,16.50
2022-08-19T05:25:12.938Z,16.60
2022-08-19T05:27:43.390Z,16.60
2022-08-19T05:30:10.030Z,16.60
2022-08-19T05:32:36.635Z,16.70
2022-08-19T05:35:03.199Z,16.70
2022-08-19T05:37:30.069Z,16.70
2022-08-19T05:39:59.043Z,16.80
2022-08-19T05:42:26.669Z,16.80
2022-08-19T05:44:53.409Z,16.90
2022-08-19T05:47:20.993Z,17.00
2022-08-19T05:49:48.035Z,17.00
2022-08-19T05:52:16.387Z,17.10
2022-08-19T05:54:46.289Z,17.10
2022-08-19T05:57:14.562Z,17.20
2022-08-19T05:59:41.121Z,17.30
2022-08-19T06:02:07.833Z,17.40
2022-08-19T06:04:34.417Z,17.50
2022-08-19T06:07:12.549Z,17.60
2022-08-19T06:09:39.563Z,17.70
2022-08-19T06:12:06.283Z,17.70
2022-08-19T06:14:33.469Z,17.80
2022-08-19T06:17:06.863Z,17.80
2022-08-19T06:19:34.051Z,17.80
2022-08-19T06:22:00.699Z,17.80
2022-08-19T06:24:28.832Z,17.90
2022-08-19T06:26:59.219Z,18.00
2022-08-19T06:29:28.365Z,18.10
2022-08-19T06:31:55.316Z,18.20
2022-08-19T06:34:21.931Z,18.30
2022-08-19T06:36:48.469Z,18.40
2022-08-19T06:39:15.038Z,18.50
2022-08-19T06:41:47.203Z,18.60
2022-08-19T06:44:17.293Z,18.70
2022-08-19T06:46:45.986Z,18.90
2022-08-19T06:49:21.293Z,19.10
2022-08-19T06:51:48.624Z,19.20
2022-08-19T06:54:19.298Z,19.40
2022-08-19T06:56:46.716Z,19.40
2022-08-19T06:59:13.310Z,19.50
2022-08-19T07:01:40.420Z,19.60
2022-08-19T07:04:07.134Z,19.70
2022-08-19T07:06:43.912Z,19.80
2022-08-19T07:09:11.348Z,19.80
2022-08-19T07:11:38.893Z,19.90
2022-08-19T07:14:07.434Z,20.00
2022-08-19T07:16:49.064Z,20.10
2022-08-19T07:19:16.162Z,20.10
2022-08-19T07:21:45.338Z,20.20
2022-08-19T07:24:13.145Z,20.20
2022-08-19T07:26:39.818Z,20.30
2022-08-19T07:29:08.771Z,20.30
2022-08-19T07:31:37.762Z,20.40
2022-08-19T07:34:04.623Z,20.50
2022-08-19T07:36:33.147Z,20.60
2022-08-19T07:38:59.697Z,20.60
2022-08-19T07:41:26.328Z,20.70
2022-08-19T07:43:52.903Z,20.90
2022-08-19T07:46:21.334Z,20.90
2022-08-19T07:48:47.873Z,21.10
2022-08-19T07:51:14.446Z,21.20
2022-08-19T07:53:56.115Z,21.20
2022-08-19T07:56:22.759Z,21.30
2022-08-19T07:58:49.445Z,21.40
2022-08-19T08:01:16.490Z,21.40
2022-08-19T08:04:01.882Z,21.50
2022-08-19T08:06:47.216Z,21.50
2022-08-19T08:09:16.831Z,21.40
2022-08-19T08:11:43.383Z,21.40
2022-08-19T08:14:28.993Z,21.40
2022-08-19T08:16:56.340Z,21.40
2022-08-19T08:19:26.027Z,21.50
2022-08-19T08:21:52.628Z,21.70
2022-08-19T08:24:19.243Z,21.80
2022-08-19T08:26:52.024Z,21.90
2022-08-19T08:29:20.249Z,22.00
2022-08-19T08:31:46.995Z,22.20
2022-08-19T08:34:25.115Z,22.20
2022-08-19T08:36:53.073Z,22.20
2022-08-19T08:39:19.659Z,22.20
2022-08-19T08:41:46.213Z,22.20
2022-08-19T08:44:17.160Z,22.30
2022-08-19T08:46:43.936Z,22.30
2022-08-19T08:49:10.587Z,22.40
2022-08-19T08:51:38.134Z,22.40
2022-08-19T08:54:04.786Z,22.40
2022-08-19T08:59:03.185Z,22.30
2022-08-19T09:01:30.777Z,22.30
2022-08-19T09:03:57.628Z,22.40
2022-08-19T09:06:29.697Z,22.60
2022-08-19T09:08:56.721Z,22.80
2022-08-19T09:11:42.077Z,23.00
2022-08-19T09:14:23.579Z,23.10
2022-08-19T09:16:56.704Z,23.10
2022-08-19T09:19:23.247Z,23.20
2022-08-19T09:21:51.311Z,23.30
2022-08-19T09:24:18.202Z,23.30
2022-08-19T09:26:52.304Z,23.30
2022-08-19T09:29:19.589Z,23.40
2022-08-19T09:31:49.164Z,23.40
2022-08-19T09:34:21.664Z,23.50
2022-08-19T09:36:55.894Z,23.60
2022-08-19T09:39:22.451Z,23.70
2022-08-19T09:41:50.727Z,24.00
2022-08-19T09:44:24.143Z,24.10
2022-08-19T09:46:53.583Z,24.10
2022-08-19T09:49:20.696Z,24.20
2022-08-19T09:51:51.177Z,24.30
2022-08-19T09:54:25.202Z,24.20
2022-08-19T09:56:52.057Z,24.10
2022-08-19T09:59:18.953Z,24.00
2022-08-19T10:01:45.643Z,23.90
2022-08-19T10:04:20.255Z,24.00
2022-08-19T10:06:51.853Z,24.10
2022-08-19T10:09:33.835Z,24.20
2022-08-19T10:12:02.539Z,24.30
2022-08-19T10:14:29.971Z,24.30
2022-08-19T10:16:59.122Z,24.40
2022-08-19T10:19:26.461Z,24.40
2022-08-19T10:21:53.209Z,24.30
2022-08-19T10:24:21.906Z,24.30
2022-08-19T10:26:49.422Z,24.40
2022-08-19T10:29:32.208Z,24.50
2022-08-19T10:32:03.150Z,24.50
2022-08-19T10:34:29.888Z,24.60
2022-08-19T10:37:01.153Z,24.70
2022-08-19T10:39:30.952Z,24.80
2022-08-19T10:41:58.154Z,24.80
2022-08-19T10:44:24.971Z,24.70
2022-08-19T10:46:59.801Z,24.50
2022-08-19T10:49:26.810Z,24.50
2022-08-19T10:52:13.107Z,24.50
2022-08-19T10:55:08.462Z,24.60
2022-08-19T11:00:21.930Z,25.00
2022-08-19T11:02:50.841Z,25.10
2022-08-19T11:05:18.013Z,25.20
2022-08-19T11:07:45.598Z,25.50
2022-08-19T11:10:13.245Z,25.60
2022-08-19T11:12:40.208Z,25.60
2022-08-19T11:15:06.728Z,25.50
2022-08-19T11:17:33.300Z,25.70
2022-08-19T11:20:03.157Z,25.90
2022-08-19T11:22:34.420Z,26.00
2022-08-19T11:25:05.669Z,26.00
2022-08-19T11:27:32.264Z,25.90
2022-08-19T11:29:58.829Z,25.90
2022-08-19T11:32:25.529Z,25.80
2022-08-19T11:34:52.191Z,25.90
2022-08-19T11:37:19.550Z,25.90
2022-08-19T11:39:46.150Z,25.90
2022-08-19T11:42:39.549Z,25.90
2022-08-19T11:45:06.192Z,25.80
2022-08-19T11:47:33.202Z,25.70
2022-08-19T11:50:00.080Z,25.80
2022-08-19T11:52:27.566Z,25.80
2022-08-19T11:54:54.493Z,26.10
2022-08-19T11:57:21.106Z,26.40
2022-08-19T11:59:47.631Z,26.50
2022-08-19T12:02:16.309Z,26.50
2022-08-19T12:04:42.920Z,26.60
2022-08-19T12:07:09.460Z,26.50
2022-08-19T12:09:35.975Z,26.30
2022-08-19T12:12:03.290Z,26.30
2022-08-19T12:14:31.731Z,26.20
2022-08-19T12:16:58.364Z,26.20
2022-08-19T12:19:25.705Z,26.20
2022-08-19T12:21:52.352Z,26.50
2022-08-19T12:24:24.101Z,26.60
2022-08-19T12:26:52.918Z,26.60
2022-08-19T12:29:23.396Z,26.50
2022-08-19T12:31:50.632Z,26.30
2022-08-19T12:34:17.178Z,26.30
2022-08-19T12:36:43.738Z,26.20
2022-08-19T12:39:10.739Z,26.20
2022-08-19T12:41:43.364Z,26.10
2022-08-19T12:44:18.004Z,26.00
2022-08-19T12:46:46.440Z,25.90
2022-08-19T12:49:20.675Z,26.10
2022-08-19T12:51:59.768Z,26.30
2022-08-19T12:54:26.905Z,26.30
2022-08-19T12:56:53.590Z,26.50
2022-08-19T12:59:20.168Z,26.60
2022-08-19T13:01:46.724Z,26.70
2022-08-19T13:04:13.341Z,26.90
2022-08-19T13:06:39.970Z,27.00
2022-08-19T13:09:06.487Z,27.00
2022-08-19T13:11:36.043Z,26.90
2022-08-19T13:14:02.611Z,27.00
2022-08-19T13:16:29.212Z,26.80
2022-08-19T13:18:55.815Z,26.60
2022-08-19T13:21:23.169Z,26.30
2022-08-19T13:23:49.897Z,26.00
2022-08-19T13:26:16.475Z,26.10
2022-08-19T13:29:01.917Z,26.20
2022-08-19T13:31:47.083Z,26.20
2022-08-19T13:34:13.641Z,26.20
2022-08-19T13:36:40.314Z,26.30
2022-08-19T13:39:06.951Z,26.40
2022-08-19T13:41:34.652Z,26.50
2022-08-19T13:44:01.173Z,26.40
2022-08-19T13:46:28.219Z,26.30
2022-08-19T13:48:54.983Z,26.40
2022-08-19T13:51:21.676Z,26.50
2022-08-19T13:53:48.325Z,26.70
2022-08-19T13:56:14.911Z,26.90
2022-08-19T13:58:41.454Z,27.00
2022-08-19T14:01:08.073Z,27.20
2022-08-19T14:03:34.736Z,27.40
2022-08-19T14:06:01.329Z,27.30
2022-08-19T14:08:29.034Z,27.30
2022-08-19T14:10:55.604Z,27.10
2022-08-19T14:13:22.143Z,26.90
2022-08-19T14:15:48.720Z,26.50
2022-08-19T14:18:15.291Z,26.40
2022-08-19T14:20:43.150Z,26.50
2022-08-19T14:23:09.968Z,26.60
2022-08-19T14:25:36.529Z,26.60
2022-08-19T14:28:03.108Z,26.60
2022-08-19T14:30:29.792Z,26.70
2022-08-19T14:32:56.294Z,26.90
2022-08-19T14:35:22.818Z,27.10
2022-08-19T14:37:49.334Z,27.40
2022-08-19T14:40:16.333Z,27.40
2022-08-19T14:42:42.953Z,27.60
2022-08-19T14:45:09.545Z,27.60
2022-08-19T14:47:36.083Z,27.70
2022-08-19T14:50:07.373Z,27.60
2022-08-19T14:52:37.191Z,27.60
2022-08-19T14:55:03.733Z,27.50
2022-08-19T14:57:34.264Z,27.50
2022-08-19T15:00:00.992Z,27.50
2022-08-19T15:02:34.606Z,27.40
2022-08-19T15:05:02.521Z,27.50
2022-08-19T15:07:30.083Z,27.50
2022-08-19T15:09:56.773Z,27.40
2022-08-19T15:12:23.453Z,27.20
2022-08-19T15:14:55.845Z,27.10
2022-08-19T15:17:43.323Z,27.10
2022-08-19T15:20:10.131Z,27.00
2022-08-19T15:22:36.656Z,27.10
2022-08-19T15:25:03.205Z,27.10
2022-08-19T15:27:30.591Z,27.20
2022-08-19T15:30:01.624Z,27.20
2022-08-19T15:32:28.914Z,27.20
2022-08-19T15:34:55.457Z,27.20
2022-08-19T15:37:25.266Z,27.10
2022-08-19T15:39:52.044Z,26.90
2022-08-19T15:42:28.139Z,26.90
2022-08-19T15:45:00.519Z,26.90
2022-08-19T15:47:28.088Z,27.10
2022-08-19T15:50:01.102Z,27.20
2022-08-19T15:52:27.887Z,27.30
2022-08-19T15:54:54.423Z,27.00
2022-08-19T15:57:27.043Z,26.80
2022-08-19T16:00:12.520Z,26.70
2022-08-19T16:02:57.874Z,26.50
2022-08-19T16:05:44.528Z,26.40
2022-08-19T16:08:11.092Z,26.30
2022-08-19T16:10:38.282Z,26.30
2022-08-19T16:13:05.952Z,26.10
2022-08-19T16:15:33.656Z,26.00
2022-08-19T16:18:04.219Z,25.90
2022-08-19T16:20:30.827Z,25.80
2022-08-19T16:22:58.277Z,25.70
2022-08-19T16:25:27.607Z,25.60
2022-08-19T16:28:06.149Z,25.50
2022-08-19T16:30:33.555Z,25.40
2022-08-19T16:33:00.063Z,25.30
2022-08-19T16:35:26.625Z,25.20
2022-08-19T16:37:53.547Z,25.20
2022-08-19T16:40:20.344Z,25.10
2022-08-19T16:42:46.934Z,25.10
2022-08-19T16:45:13.479Z,25.10
2022-08-19T16:47:40.709Z,25.10
2022-08-19T16:50:07.619Z,25.20
2022-08-19T16:52:34.836Z,25.20
2022-08-19T16:55:01.466Z,25.20
2022-08-19T16:57:28.033Z,25.20
2022-08-19T16:59:54.648Z,25.20
2022-08-19T17:02:22.356Z,25.10
2022-08-19T17:04:58.402Z,25.10
2022-08-19T17:07:25.736Z,25.00
2022-08-19T17:09:52.341Z,25.00
2022-08-19T17:12:18.903Z,25.00
2022-08-19T17:14:45.993Z,25.00
2022-08-19T17:17:12.760Z,24.90
2022-08-19T17:19:41.584Z,24.90
2022-08-19T17:22:08.203Z,24.90
2022-08-19T17:24:38.042Z,24.80
2022-08-19T17:27:07.227Z,24.90
2022-08-19T17:29:33.891Z,25.10
2022-08-19T17:32:00.488Z,25.30
2022-08-19T17:34:28.107Z,25.60
2022-08-19T17:36:56.796Z,25.80
2022-08-19T17:39:23.367Z,25.90
2022-08-19T17:41:49.959Z,26.00
2022-08-19T17:44:17.312Z,26.00
2022-08-19T17:46:46.505Z,25.90
2022-08-19T17:49:13.108Z,25.80
2022-08-19T17:51:40.209Z,25.60
2022-08-19T17:54:06.794Z,25.40
2022-08-19T17:56:33.411Z,25.20
2022-08-19T17:59:01.663Z,24.90
2022-08-19T18:01:33.484Z,24.70
2022-08-19T18:04:15.106Z,24.50
2022-08-19T18:06:41.682Z,24.50
2022-08-19T18:09:16.959Z,24.30
2022-08-19T18:11:44.665Z,24.30
2022-08-19T18:14:13.164Z,24.10
2022-08-19T18:16:40.255Z,24.00
2022-08-19T18:19:07.353Z,24.00
2022-08-19T18:21:35.948Z,23.90
2022-08-19T18:24:02.571Z,23.70
2022-08-19T18:26:30.263Z,23.60
2022-08-19T18:28:57.320Z,23.40
2022-08-19T18:31:23.982Z,23.40
2022-08-19T18:33:52.505Z,23.30
2022-08-19T18:36:37.409Z,23.20
2022-08-19T18:39:35.364Z,23.20
2022-08-19T18:42:23.169Z,23.20
2022-08-19T18:45:08.702Z,23.10
2022-08-19T18:47:54.201Z,23.00
2022-08-19T18:50:23.894Z,22.90
2022-08-19T18:52:50.428Z,22.80
2022-08-19T18:55:18.129Z,22.70
2022-08-19T18:57:44.802Z,22.60
2022-08-19T19:00:12.558Z,22.60
2022-08-19T19:02:39.996Z,22.60
2022-08-19T19:05:07.631Z,22.60
2022-08-19T19:07:34.499Z,22.50
2022-08-19T19:10:01.108Z,22.50
2022-08-19T19:12:30.658Z,22.40
2022-08-19T19:14:58.645Z,22.40
2022-08-19T19:17:28.386Z,22.40
2022-08-19T19:19:54.948Z,22.30
2022-08-19T19:22:21.517Z,22.30
2022-08-19T19:24:48.196Z,22.30
2022-08-19T19:27:15.039Z,22.30
2022-08-19T19:29:41.650Z,22.30
2022-08-19T19:32:08.224Z,22.20
2022-08-19T19:34:34.817Z,22.30
2022-08-19T19:37:01.450Z,22.30
2022-08-19T19:39:45.106Z,22.20
2022-08-19T19:42:20.564Z,22.20
2022-08-19T19:44:48.928Z,22.20
2022-08-19T19:47:16.005Z,22.10
2022-08-19T19:50:03.829Z,22.10
2022-08-19T19:52:29.559Z,22.20
2022-08-19T19:54:57.107Z,22.10
2022-08-19T19:57:23.817Z,22.00
2022-08-19T19:59:51.415Z,21.90
2022-08-19T20:02:18.386Z,21.90
2022-08-19T20:04:45.406Z,21.80
2022-08-19T20:07:12.005Z,21.80
2022-08-19T20:09:58.339Z,21.60
2022-08-19T20:12:25.107Z,21.60
2022-08-19T20:14:51.676Z,21.60
2022-08-19T20:17:20.551Z,21.50
2022-08-19T20:19:47.841Z,21.50
2022-08-19T20:22:14.910Z,21.40
2022-08-19T20:24:42.623Z,21.50
2022-08-19T20:27:09.312Z,21.40
2022-08-19T20:29:39.585Z,21.30
2022-08-19T20:32:07.117Z,21.30
2022-08-19T20:34:33.798Z,21.30
2022-08-19T20:37:00.390Z,21.20
2022-08-19T20:39:26.983Z,21.10
2022-08-19T20:41:53.597Z,21.00
2022-08-19T20:44:20.180Z,20.90
2022-08-19T20:46:54.812Z,20.90
2022-08-19T20:49:22.969Z,20.80
2022-08-19T20:51:54.446Z,20.80
2022-08-19T20:54:21.076Z,20.70
2022-08-19T20:56:47.741Z,20.70
2022-08-19T20:59:14.442Z,20.60
2022-08-19T21:01:40.967Z,20.50
2022-08-19T21:04:07.672Z,20.50
2022-08-19T21:06:34.236Z,20.50
2022-08-19T21:09:00.813Z,20.50
2022-08-19T21:11:27.414Z,20.40
2022-08-19T21:13:54.054Z,20.40
2022-08-19T21:16:20.814Z,20.40
2022-08-19T21:18:48.208Z,20.30
2022-08-19T21:21:15.800Z,20.30
2022-08-19T21:23:42.602Z,20.20
2022-08-19T21:26:09.626Z,20.20
2022-08-19T21:28:36.730Z,20.20
2022-08-19T21:31:03.860Z,20.20
2022-08-19T21:33:32.110Z,20.20
2022-08-19T21:35:59.206Z,20.20
2022-08-19T21:38:25.800Z,20.30
2022-08-19T21:40:52.473Z,20.30
2022-08-19T21:43:19.055Z,20.30
2022-08-19T21:45:45.634Z,20.40
2022-08-19T21:48:14.333Z,20.30
2022-08-19T21:50:40.938Z,20.40
2022-08-19T21:53:07.808Z,20.40
2022-08-19T21:55:37.871Z,20.40
2022-08-19T21:58:04.502Z,20.40
2022-08-19T22:00:32.218Z,20.40
2022-08-19T22:02:58.966Z,20.40
2022-08-19T22:05:25.634Z,20.40
2022-08-19T22:07:52.244Z,20.40
2022-08-19T22:10:18.989Z,20.40
2022-08-19T22:12:51.345Z,20.40
2022-08-19T22:15:18.878Z,20.30
2022-08-19T22:17:45.428Z,20.30
2022-08-19T22:20:12.011Z,20.30
2022-08-19T22:22:38.535Z,20.40
2022-08-19T22:25:05.545Z,20.40
2022-08-19T22:27:32.139Z,20.50
2022-08-19T22:29:58.711Z,20.50
2022-08-19T22:32:28.633Z,20.50
2022-08-19T22:34:56.345Z,20.50
2022-08-19T22:37:22.932Z,20.50
2022-08-19T22:39:49.677Z,20.50
2022-08-19T22:42:16.361Z,20.50
2022-08-19T22:44:43.074Z,20.50
2022-08-19T22:47:10.010Z,20.40
2022-08-19T22:49:36.572Z,20.50
2022-08-19T22:52:17.644Z,20.50
2022-08-19T22:54:45.050Z,20.50
2022-08-19T22:57:11.591Z,20.50
2022-08-19T22:59:38.112Z,20.50
2022-08-19T23:02:04.674Z,20.50
2022-08-19T23:04:31.212Z,20.50
2022-08-19T23:06:57.779Z,20.50
2022-08-19T23:09:24.340Z,20.50
2022-08-19T23:11:50.942Z,20.50
2022-08-19T23:14:18.808Z,20.50
2022-08-19T23:16:50.391Z,20.50
2022-08-19T23:19:17.937Z,20.40
2022-08-19T23:21:44.505Z,20.40
2022-08-19T23:24:11.035Z,20.40
2022-08-19T23:26:37.593Z,20.40
2022-08-19T23:29:22.920Z,20.20
2022-08-19T23:31:49.846Z,20.20
2022-08-19T23:34:17.143Z,20.20
2022-08-19T23:36:43.691Z,20.10
2022-08-19T23:39:10.234Z,20.00
2022-08-19T23:41:36.799Z,20.00
2022-08-19T23:44:03.381Z,19.90
2022-08-19T23:46:30.981Z,19.90
2022-08-19T23:49:08.809Z,19.90
2022-08-19T23:51:35.520Z,19.80
2022-08-19T23:54:02.052Z,19.80
2022-08-19T23:56:28.622Z,19.70
2022-08-19T23:58:55.255Z,19.70
